Woodhull, Illinois
Current Conditions -  °F | °C
As of 5:15 PM on Friday 31 Oct 2014 (Local Time) from KGBG Reporting Station
Scattered Clouds Scattered Clouds  
Wind Chill: 32°   Ceiling: Unl
Heat Index: 40°   Visibility: 10mi
Dew Point: 21°   Wind: 16mph
Humidity: 47%   Direction: 330°NNW
Pressure: 30.35"   Gusts: 23mph
Location:  41.18°N, 90.32°W
Report Text: KGBG 312215Z AUTO 33014G20KT 10SM SCT055 05/M06 A3035 RMK AO2 T00451061
Loading
Personal Weather Stations






























Interactive Weather Map
Tropical Storm Tracking
New forecast layout! Learn more

10-Day Weather Forecast

Advertisements
Track Severe Weather on mobile